Main page
Satellite images Climate Cyclones Lightning AirportsFAQ Languages Contact Newsletter About
Weather : Europe Africa North America South America Asia Australia-Oceania Others

yangon-mm, Yangon, Yangon International Airport

48097

latitude: , longitude: Myanmar, elevation: 16-46N m


METAR: VYYY 231030Z 29010KT 4000 TSRA BKN012 FEW018CB OVC080 26/26 Q1008